sensor_id;sensor_type;location;lat;lon;timestamp;P1;durP1;ratioP1;P2;durP2;ratioP2
48795;SDS011;34607;48.520;-1.330;2023-07-30T17:56:41;11.18;;;4.63;;
48795;SDS011;34607;48.520;-1.330;2023-07-30T17:59:09;10.45;;;4.55;;
48795;SDS011;34607;48.520;-1.330;2023-07-30T18:01:36;7.75;;;4.60;;
48795;SDS011;34607;48.520;-1.330;2023-07-30T18:04:03;11.93;;;4.97;;
48795;SDS011;34607;48.520;-1.330;2023-07-30T18:06:30;13.60;;;5.25;;
48795;SDS011;34607;48.520;-1.330;2023-07-30T18:08:58;6.53;;;3.67;;
48795;SDS011;34607;48.520;-1.330;2023-07-30T18:11:26;7.10;;;4.43;;
48795;SDS011;34607;48.520;-1.330;2023-07-30T18:13:55;11.30;;;4.45;;
48795;SDS011;34607;48.520;-1.330;2023-07-30T18:16:22;9.15;;;4.75;;
48795;SDS011;34607;48.520;-1.330;2023-07-30T18:18:49;10.32;;;4.28;;
48795;SDS011;34607;48.520;-1.330;2023-07-30T18:21:17;8.40;;;4.53;;
48795;SDS011;34607;48.520;-1.330;2023-07-30T18:23:44;11.68;;;4.85;;
48795;SDS011;34607;48.520;-1.330;2023-07-30T18:26:11;12.48;;;4.60;;
48795;SDS011;34607;48.520;-1.330;2023-07-30T18:28:38;10.57;;;3.97;;
48795;SDS011;34607;48.520;-1.330;2023-07-30T18:31:07;7.75;;;4.43;;
48795;SDS011;34607;48.520;-1.330;2023-07-30T18:33:34;9.27;;;4.35;;
48795;SDS011;34607;48.520;-1.330;2023-07-30T18:36:01;9.30;;;4.10;;
48795;SDS011;34607;48.520;-1.330;2023-07-30T18:38:28;14.32;;;4.13;;
48795;SDS011;34607;48.520;-1.330;2023-07-30T18:40:55;9.50;;;4.05;;
48795;SDS011;34607;48.520;-1.330;2023-07-30T18:43:23;8.32;;;3.97;;
48795;SDS011;34607;48.520;-1.330;2023-07-30T18:45:51;6.70;;;3.63;;
48795;SDS011;34607;48.520;-1.330;2023-07-30T18:48:19;6.78;;;3.42;;
48795;SDS011;34607;48.520;-1.330;2023-07-30T18:50:46;8.13;;;4.13;;
48795;SDS011;34607;48.520;-1.330;2023-07-30T18:53:14;6.40;;;3.42;;
48795;SDS011;34607;48.520;-1.330;2023-07-30T18:55:41;6.63;;;3.30;;
48795;SDS011;34607;48.520;-1.330;2023-07-30T18:58:09;5.20;;;2.92;;
48795;SDS011;34607;48.520;-1.330;2023-07-30T19:00:36;6.45;;;3.15;;
48795;SDS011;34607;48.520;-1.330;2023-07-30T19:03:04;9.05;;;3.53;;
48795;SDS011;34607;48.520;-1.330;2023-07-30T19:05:32;8.15;;;3.47;;
48795;SDS011;34607;48.520;-1.330;2023-07-30T19:07:59;7.72;;;3.15;;
48795;SDS011;34607;48.520;-1.330;2023-07-30T19:10:27;5.68;;;3.00;;
48795;SDS011;34607;48.520;-1.330;2023-07-30T19:12:54;6.55;;;2.95;;
48795;SDS011;34607;48.520;-1.330;2023-07-30T19:15:21;9.13;;;3.78;;
48795;SDS011;34607;48.520;-1.330;2023-07-30T19:17:49;5.97;;;3.42;;
48795;SDS011;34607;48.520;-1.330;2023-07-30T19:20:16;8.23;;;3.15;;
48795;SDS011;34607;48.520;-1.330;2023-07-30T19:22:44;5.13;;;2.92;;
48795;SDS011;34607;48.520;-1.330;2023-07-30T19:25:11;6.57;;;3.42;;
48795;SDS011;34607;48.520;-1.330;2023-07-30T19:27:38;6.00;;;3.47;;
48795;SDS011;34607;48.520;-1.330;2023-07-30T19:30:06;6.68;;;3.50;;
48795;SDS011;34607;48.520;-1.330;2023-07-30T19:32:35;8.35;;;3.35;;
48795;SDS011;34607;48.520;-1.330;2023-07-30T19:35:02;6.63;;;2.85;;
48795;SDS011;34607;48.520;-1.330;2023-07-30T19:37:30;6.22;;;3.05;;
48795;SDS011;34607;48.520;-1.330;2023-07-30T19:39:58;8.02;;;3.17;;
48795;SDS011;34607;48.520;-1.330;2023-07-30T19:42:25;5.47;;;2.60;;
48795;SDS011;34607;48.520;-1.330;2023-07-30T19:44:52;7.35;;;3.00;;
48795;SDS011;34607;48.520;-1.330;2023-07-30T19:47:19;5.65;;;3.38;;
48795;SDS011;34607;48.520;-1.330;2023-07-30T19:49:49;6.95;;;3.42;;
48795;SDS011;34607;48.520;-1.330;2023-07-30T19:52:16;6.95;;;3.08;;
48795;SDS011;34607;48.520;-1.330;2023-07-30T19:54:43;5.43;;;2.67;;
48795;SDS011;34607;48.520;-1.330;2023-07-30T19:57:11;6.15;;;2.78;;
48795;SDS011;34607;48.520;-1.330;2023-07-30T19:59:38;4.93;;;2.40;;
48795;SDS011;34607;48.520;-1.330;2023-07-30T20:02:05;5.82;;;3.45;;
48795;SDS011;34607;48.520;-1.330;2023-07-30T20:04:32;5.00;;;2.78;;
48795;SDS011;34607;48.520;-1.330;2023-07-30T20:06:59;9.63;;;3.92;;
48795;SDS011;34607;48.520;-1.330;2023-07-30T20:09:26;8.95;;;2.88;;
48795;SDS011;34607;48.520;-1.330;2023-07-30T20:11:53;7.65;;;3.03;;
48795;SDS011;34607;48.520;-1.330;2023-07-30T20:14:21;7.57;;;2.88;;
48795;SDS011;34607;48.520;-1.330;2023-07-30T20:16:48;7.78;;;3.00;;
48795;SDS011;34607;48.520;-1.330;2023-07-30T20:19:16;8.70;;;2.70;;
48795;SDS011;34607;48.520;-1.330;2023-07-30T20:21:43;10.68;;;2.75;;
48795;SDS011;34607;48.520;-1.330;2023-07-30T20:24:10;5.35;;;2.80;;
48795;SDS011;34607;48.520;-1.330;2023-07-30T20:26:37;9.60;;;3.10;;
48795;SDS011;34607;48.520;-1.330;2023-07-30T20:29:04;6.80;;;2.95;;
48795;SDS011;34607;48.520;-1.330;2023-07-30T20:31:32;6.43;;;2.55;;
48795;SDS011;34607;48.520;-1.330;2023-07-30T20:34:01;5.03;;;3.00;;
48795;SDS011;34607;48.520;-1.330;2023-07-30T20:36:28;9.70;;;3.10;;
48795;SDS011;34607;48.520;-1.330;2023-07-30T20:38:56;7.38;;;2.63;;
48795;SDS011;34607;48.520;-1.330;2023-07-30T20:41:23;6.72;;;2.90;;
48795;SDS011;34607;48.520;-1.330;2023-07-30T20:43:50;7.75;;;2.90;;
48795;SDS011;34607;48.520;-1.330;2023-07-30T20:46:17;6.75;;;2.70;;
48795;SDS011;34607;48.520;-1.330;2023-07-30T20:48:45;6.97;;;3.63;;
48795;SDS011;34607;48.520;-1.330;2023-07-30T20:51:12;6.70;;;3.15;;
48795;SDS011;34607;48.520;-1.330;2023-07-30T20:53:39;6.85;;;2.88;;
48795;SDS011;34607;48.520;-1.330;2023-07-30T20:56:06;5.50;;;2.67;;
48795;SDS011;34607;48.520;-1.330;2023-07-30T20:58:34;7.22;;;2.67;;
48795;SDS011;34607;48.520;-1.330;2023-07-30T21:01:01;6.93;;;2.85;;
48795;SDS011;34607;48.520;-1.330;2023-07-30T21:03:28;8.68;;;3.03;;
48795;SDS011;34607;48.520;-1.330;2023-07-30T21:05:59;8.57;;;3.28;;
